createdAt,value
2022-09-20T00:01:48.902Z,76.39
2022-09-20T00:04:17.356Z,76.26
2022-09-20T00:06:46.556Z,76.46
2022-09-20T00:09:15.439Z,76.52
2022-09-20T00:11:45.680Z,76.48
2022-09-20T00:14:14.734Z,76.32
2022-09-20T00:16:43.543Z,76.46
2022-09-20T00:19:20.482Z,76.43
2022-09-20T00:21:49.795Z,76.42
2022-09-20T00:24:18.299Z,76.48
2022-09-20T00:26:47.200Z,76.64
2022-09-20T00:29:17.164Z,76.67
2022-09-20T00:31:45.739Z,76.63
2022-09-20T00:34:33.917Z,76.54
2022-09-20T00:37:02.733Z,76.56
2022-09-20T00:39:31.901Z,76.63
2022-09-20T00:42:00.723Z,76.74
2022-09-20T00:44:55.730Z,76.76
2022-09-20T00:47:37.301Z,76.94
2022-09-20T00:50:33.872Z,76.76
2022-09-20T00:53:19.169Z,76.75
2022-09-20T00:55:57.911Z,76.75
2022-09-20T00:58:29.525Z,76.52
2022-09-20T01:00:59.802Z,76.76
2022-09-20T01:03:31.872Z,76.84
2022-09-20T01:06:06.450Z,76.88
2022-09-20T01:08:36.993Z,76.81
2022-09-20T01:11:06.284Z,76.81
2022-09-20T01:13:34.736Z,76.73
2022-09-20T01:16:06.144Z,76.76
2022-09-20T01:18:36.739Z,76.90
2022-09-20T01:21:08.024Z,77.01
2022-09-20T01:24:11.685Z,76.82
2022-09-20T01:26:59.465Z,77.06
2022-09-20T01:29:49.147Z,77.02
2022-09-20T01:32:23.031Z,76.95
2022-09-20T01:35:01.513Z,77.15
2022-09-20T01:38:09.241Z,77.03
2022-09-20T01:40:56.228Z,77.07
2022-09-20T01:43:35.304Z,77.35
2022-09-20T01:46:30.643Z,77.43
2022-09-20T01:49:05.294Z,77.47
2022-09-20T01:51:46.013Z,77.36
2022-09-20T01:54:18.109Z,77.43
2022-09-20T01:57:12.077Z,77.28
2022-09-20T02:00:02.218Z,77.17
2022-09-20T02:02:55.868Z,77.33
2022-09-20T02:05:39.607Z,77.40
2022-09-20T02:08:45.449Z,77.30
2022-09-20T02:11:20.092Z,77.48
2022-09-20T02:13:57.967Z,77.41
2022-09-20T02:16:49.371Z,77.29
2022-09-20T02:19:54.079Z,77.36
2022-09-20T02:22:49.647Z,77.45
2022-09-20T02:25:55.178Z,77.35
2022-09-20T02:28:55.263Z,77.52
2022-09-20T02:31:44.786Z,77.56
2022-09-20T02:34:32.780Z,77.43
2022-09-20T02:37:23.237Z,77.52
2022-09-20T02:40:01.483Z,77.60
2022-09-20T02:42:39.260Z,77.42
2022-09-20T02:45:14.628Z,77.57
2022-09-20T02:47:44.312Z,77.56
2022-09-20T02:50:27.338Z,77.47
2022-09-20T02:53:14.859Z,77.52
2022-09-20T02:56:27.503Z,77.40
2022-09-20T02:59:03.824Z,77.57
2022-09-20T03:02:23.536Z,77.56
2022-09-20T03:05:12.025Z,77.62
2022-09-20T03:07:52.274Z,77.47
2022-09-20T03:10:50.663Z,77.39
2022-09-20T03:13:39.711Z,77.63
2022-09-20T03:16:40.999Z,77.77
2022-09-20T03:19:37.958Z,77.78
2022-09-20T03:22:34.204Z,77.68
2022-09-20T03:25:22.187Z,77.69
2022-09-20T03:28:22.543Z,77.87
2022-09-20T03:31:10.238Z,77.92
2022-09-20T03:33:44.643Z,78.03
2022-09-20T03:36:33.803Z,78.07
2022-09-20T03:39:11.452Z,77.87
2022-09-20T03:41:49.059Z,77.75
2022-09-20T03:44:39.590Z,77.74
2022-09-20T03:47:20.132Z,77.73
2022-09-20T03:50:22.330Z,78.07
2022-09-20T03:53:12.762Z,78.15
2022-09-20T03:56:05.340Z,77.94
2022-09-20T03:58:45.968Z,78.18
2022-09-20T04:01:31.423Z,78.12
2022-09-20T04:04:25.336Z,78.00
2022-09-20T04:07:01.244Z,78.12
2022-09-20T04:09:39.193Z,78.09
2022-09-20T04:12:28.146Z,78.08
2022-09-20T04:15:00.289Z,78.07
2022-09-20T04:17:57.699Z,78.08
2022-09-20T04:20:36.658Z,78.15
2022-09-20T04:23:21.293Z,78.14
2022-09-20T04:25:51.430Z,78.26
2022-09-20T04:28:28.429Z,78.32
2022-09-20T04:31:10.465Z,78.27
2022-09-20T04:33:47.863Z,78.35
2022-09-20T04:36:37.097Z,78.44
2022-09-20T04:39:28.170Z,78.42
2022-09-20T04:42:33.084Z,78.41
2022-09-20T04:45:30.641Z,78.48
2022-09-20T04:48:11.362Z,78.54
2022-09-20T04:50:50.065Z,78.52
2022-09-20T04:53:19.662Z,78.36
2022-09-20T04:56:14.920Z,78.59
2022-09-20T04:58:47.563Z,78.67
2022-09-20T05:01:56.159Z,78.65
2022-09-20T05:04:25.108Z,78.73
2022-09-20T05:07:12.535Z,78.73
2022-09-20T05:09:49.871Z,78.79
2022-09-20T05:12:37.546Z,78.69
2022-09-20T05:15:36.683Z,78.77
2022-09-20T05:18:39.416Z,78.77
2022-09-20T05:21:45.907Z,78.61
2022-09-20T05:24:31.655Z,78.69
2022-09-20T05:27:38.017Z,78.83
2022-09-20T05:30:26.366Z,78.70
2022-09-20T05:33:06.414Z,78.77
2022-09-20T05:35:43.475Z,78.70
2022-09-20T05:38:27.171Z,78.61
2022-09-20T05:41:04.803Z,78.84
2022-09-20T05:44:07.178Z,78.75
2022-09-20T05:47:10.163Z,78.75
2022-09-20T05:49:59.245Z,78.89
2022-09-20T05:52:58.926Z,78.93
2022-09-20T05:56:12.584Z,78.88
2022-09-20T05:59:11.913Z,78.78
2022-09-20T06:01:59.110Z,78.71
2022-09-20T06:04:53.706Z,78.83
2022-09-20T06:07:26.525Z,78.89
2022-09-20T06:10:15.721Z,78.20
2022-09-20T06:12:48.233Z,77.65
2022-09-20T06:15:29.127Z,77.62
2022-09-20T06:18:03.878Z,77.28
2022-09-20T06:20:49.049Z,77.22
2022-09-20T06:23:19.084Z,77.71
2022-09-20T06:25:55.528Z,77.92
2022-09-20T06:28:28.866Z,77.75
2022-09-20T06:30:58.544Z,77.95
2022-09-20T06:33:29.300Z,78.01
2022-09-20T06:36:22.306Z,78.12
2022-09-20T06:39:12.678Z,78.25
2022-09-20T06:41:41.843Z,78.27
2022-09-20T06:44:12.570Z,78.19
2022-09-20T06:46:42.074Z,78.38
2022-09-20T06:49:10.877Z,78.54
2022-09-20T06:51:40.431Z,78.35
2022-09-20T06:54:17.753Z,78.46
2022-09-20T06:56:47.974Z,78.61
2022-09-20T06:59:16.770Z,78.33
2022-09-20T07:01:46.104Z,78.46
2022-09-20T07:04:14.819Z,78.46
2022-09-20T07:06:43.268Z,78.43
2022-09-20T07:09:13.183Z,78.20
2022-09-20T07:11:43.379Z,78.18
2022-09-20T07:14:12.065Z,78.37
2022-09-20T07:16:41.305Z,78.15
2022-09-20T07:19:10.145Z,78.24
2022-09-20T07:21:38.653Z,78.21
2022-09-20T07:24:07.384Z,78.16
2022-09-20T07:26:39.161Z,78.14
2022-09-20T07:29:08.303Z,77.87
2022-09-20T07:31:38.012Z,77.91
2022-09-20T07:34:13.455Z,77.92
2022-09-20T07:36:58.931Z,77.94
2022-09-20T07:39:43.090Z,77.98
2022-09-20T07:42:18.851Z,77.77
2022-09-20T07:44:48.115Z,77.92
2022-09-20T07:47:16.939Z,77.69
2022-09-20T07:49:45.494Z,77.72
2022-09-20T07:52:15.130Z,77.77
2022-09-20T07:54:44.968Z,77.42
2022-09-20T07:57:13.745Z,77.28
2022-09-20T07:59:42.278Z,77.35
2022-09-20T08:02:15.537Z,77.17
2022-09-20T08:04:44.466Z,77.48
2022-09-20T08:07:13.667Z,77.47
2022-09-20T08:09:42.791Z,77.48
2022-09-20T08:15:01.954Z,77.75
2022-09-20T08:17:30.844Z,77.51
2022-09-20T08:19:59.335Z,76.84
2022-09-20T08:22:28.563Z,76.92
2022-09-20T08:24:57.450Z,76.44
2022-09-20T08:27:25.921Z,76.43
2022-09-20T08:29:58.022Z,76.71
2022-09-20T08:32:27.607Z,76.09
2022-09-20T08:34:56.569Z,76.43
2022-09-20T08:37:25.695Z,76.36
2022-09-20T08:39:58.442Z,76.14
2022-09-20T08:42:36.685Z,76.08
2022-09-20T08:45:22.251Z,76.12
2022-09-20T08:47:58.842Z,76.40
2022-09-20T08:50:28.477Z,76.21
2022-09-20T08:53:05.623Z,75.74
2022-09-20T08:55:36.973Z,75.46
2022-09-20T08:58:19.948Z,75.70
2022-09-20T09:00:51.831Z,75.50
2022-09-20T09:03:21.100Z,75.41
2022-09-20T09:05:53.133Z,75.37
2022-09-20T09:08:26.563Z,75.06
2022-09-20T09:11:08.939Z,74.58
2022-09-20T09:13:51.763Z,74.48
2022-09-20T09:16:28.725Z,74.54
2022-09-20T09:19:36.313Z,74.25
2022-09-20T09:22:06.330Z,74.39
2022-09-20T09:24:35.526Z,74.55
2022-09-20T09:27:19.692Z,74.16
2022-09-20T09:29:54.826Z,74.40
2022-09-20T09:32:29.975Z,74.95
2022-09-20T09:35:37.440Z,74.15
2022-09-20T09:38:06.982Z,73.07
2022-09-20T09:40:36.573Z,73.85
2022-09-20T09:43:05.173Z,73.71
2022-09-20T09:45:39.064Z,74.00
2022-09-20T09:48:31.584Z,73.84
2022-09-20T09:51:20.817Z,73.64
2022-09-20T09:53:49.839Z,72.62
2022-09-20T09:56:33.873Z,72.51
2022-09-20T09:59:05.851Z,71.28
2022-09-20T10:01:51.575Z,70.34
2022-09-20T10:04:52.428Z,71.13
2022-09-20T10:07:52.413Z,70.96
2022-09-20T10:10:21.562Z,70.87
2022-09-20T10:12:55.895Z,70.86
2022-09-20T10:15:47.206Z,70.84
2022-09-20T10:18:21.948Z,70.89
2022-09-20T10:21:05.926Z,70.84
2022-09-20T10:24:04.705Z,70.07
2022-09-20T10:27:05.064Z,70.02
2022-09-20T10:30:09.697Z,69.26
2022-09-20T10:32:55.816Z,69.69
2022-09-20T10:35:27.030Z,69.69
2022-09-20T10:38:25.369Z,69.58
2022-09-20T10:41:26.019Z,68.78
2022-09-20T10:44:24.487Z,69.18
2022-09-20T10:47:22.625Z,69.45
2022-09-20T10:50:31.899Z,68.04
2022-09-20T10:53:42.046Z,68.38
2022-09-20T10:56:20.036Z,67.73
2022-09-20T10:59:09.190Z,67.83
2022-09-20T11:01:42.508Z,67.75
2022-09-20T11:04:48.773Z,67.69
2022-09-20T11:07:26.820Z,67.78
2022-09-20T11:10:07.973Z,67.40
2022-09-20T11:12:47.127Z,67.38
2022-09-20T11:15:18.178Z,67.99
2022-09-20T11:18:00.273Z,67.21
2022-09-20T11:20:35.831Z,67.82
2022-09-20T11:23:18.611Z,67.87
2022-09-20T11:25:57.809Z,67.81
2022-09-20T11:28:36.457Z,67.16
2022-09-20T11:31:16.055Z,67.65
2022-09-20T11:34:00.832Z,67.60
2022-09-20T11:36:39.674Z,67.44
2022-09-20T11:39:46.733Z,67.51
2022-09-20T11:42:27.281Z,67.59
2022-09-20T11:44:56.673Z,67.73
2022-09-20T11:47:53.857Z,67.32
2022-09-20T11:50:48.082Z,67.29
2022-09-20T11:53:19.965Z,67.30
2022-09-20T11:56:01.385Z,66.98
2022-09-20T11:58:31.943Z,66.93
2022-09-20T12:01:01.171Z,66.93
2022-09-20T12:03:39.640Z,66.99
2022-09-20T12:06:24.935Z,66.71
2022-09-20T12:08:54.342Z,66.48
2022-09-20T12:11:36.376Z,65.81
2022-09-20T12:14:18.380Z,65.52
2022-09-20T12:16:49.162Z,66.08
2022-09-20T12:19:33.683Z,65.94
2022-09-20T12:22:05.443Z,66.57
2022-09-20T12:24:45.471Z,66.61
2022-09-20T12:27:29.741Z,66.93
2022-09-20T12:30:19.199Z,66.93
2022-09-20T12:32:49.491Z,67.01
2022-09-20T12:35:36.315Z,67.09
2022-09-20T12:38:20.373Z,67.23
2022-09-20T12:41:13.465Z,67.39
2022-09-20T12:44:05.857Z,67.13
2022-09-20T12:46:54.992Z,66.97
2022-09-20T12:49:48.363Z,67.39
2022-09-20T12:52:50.845Z,67.63
2022-09-20T12:55:40.927Z,67.40
2022-09-20T12:58:15.379Z,67.10
2022-09-20T13:01:08.504Z,67.41
2022-09-20T13:03:45.631Z,67.30
2022-09-20T13:06:15.212Z,67.16
2022-09-20T13:08:43.909Z,67.18
2022-09-20T13:11:19.159Z,67.22
2022-09-20T13:14:02.854Z,67.19
2022-09-20T13:16:34.490Z,67.30
2022-09-20T13:19:12.414Z,67.37
2022-09-20T13:21:53.866Z,67.49
2022-09-20T13:24:25.354Z,67.56
2022-09-20T13:27:00.620Z,67.18
2022-09-20T13:29:38.080Z,67.00
2022-09-20T13:32:24.769Z,67.01
2022-09-20T13:35:18.718Z,66.71
2022-09-20T13:37:56.649Z,66.59
2022-09-20T13:40:37.015Z,66.14
2022-09-20T13:43:24.890Z,66.31
2022-09-20T13:45:57.897Z,66.32
2022-09-20T13:48:29.273Z,66.11
2022-09-20T13:50:59.119Z,66.28
2022-09-20T13:53:46.316Z,66.32
2022-09-20T13:56:20.210Z,66.21
2022-09-20T13:58:50.622Z,66.23
2022-09-20T14:01:34.050Z,65.90
2022-09-20T14:04:09.269Z,65.22
2022-09-20T14:06:38.159Z,65.46
2022-09-20T14:09:11.311Z,65.18
2022-09-20T14:11:41.353Z,64.60
2022-09-20T14:14:15.630Z,64.59
2022-09-20T14:16:49.651Z,64.86
2022-09-20T14:19:21.569Z,64.35
2022-09-20T14:21:52.380Z,64.40
2022-09-20T14:24:27.844Z,64.28
2022-09-20T14:27:07.592Z,64.18
2022-09-20T14:29:40.395Z,64.38
2022-09-20T14:32:18.433Z,64.37
2022-09-20T14:35:19.069Z,64.39
2022-09-20T14:37:55.231Z,64.56
2022-09-20T14:40:42.568Z,64.63
2022-09-20T14:43:34.419Z,64.89
2022-09-20T14:46:16.037Z,64.97
2022-09-20T14:48:45.863Z,65.10
2022-09-20T14:51:22.502Z,64.96
2022-09-20T14:54:11.957Z,64.90
2022-09-20T14:56:49.684Z,65.03
2022-09-20T14:59:18.426Z,65.15
2022-09-20T15:02:13.325Z,65.15
2022-09-20T15:04:53.167Z,64.91
2022-09-20T15:07:36.971Z,64.98
2022-09-20T15:10:12.462Z,64.97
2022-09-20T15:12:42.414Z,64.97
2022-09-20T15:15:15.503Z,65.00
2022-09-20T15:17:45.892Z,65.06
2022-09-20T15:20:24.313Z,65.08
2022-09-20T15:22:53.304Z,65.16
2022-09-20T15:25:22.864Z,65.06
2022-09-20T15:27:52.342Z,64.96
2022-09-20T15:30:21.841Z,65.01
2022-09-20T15:32:52.792Z,65.04
2022-09-20T15:35:21.622Z,65.09
2022-09-20T15:37:50.458Z,65.20
2022-09-20T15:40:19.299Z,65.13
2022-09-20T15:42:48.556Z,64.95
2022-09-20T15:45:17.175Z,64.90
2022-09-20T15:47:47.017Z,65.04
2022-09-20T15:50:16.065Z,65.02
2022-09-20T15:52:45.222Z,65.10
2022-09-20T15:55:14.097Z,65.03
2022-09-20T15:57:42.900Z,64.79
2022-09-20T16:00:12.355Z,64.90
2022-09-20T16:02:41.331Z,64.80
2022-09-20T16:05:11.655Z,64.85
2022-09-20T16:07:40.566Z,64.73
2022-09-20T16:10:09.532Z,64.54
2022-09-20T16:12:38.911Z,64.58
2022-09-20T16:15:08.526Z,64.31
2022-09-20T16:17:56.251Z,64.29
2022-09-20T16:20:25.681Z,64.35
2022-09-20T16:22:55.065Z,64.21
2022-09-20T16:25:25.224Z,64.25
2022-09-20T16:27:55.124Z,64.35
2022-09-20T16:30:24.960Z,64.19
2022-09-20T16:32:53.824Z,64.18
2022-09-20T16:35:22.909Z,64.24
2022-09-20T16:37:52.165Z,64.30
2022-09-20T16:40:21.368Z,64.27
2022-09-20T16:42:52.409Z,64.37
2022-09-20T16:45:22.143Z,64.52
2022-09-20T16:47:51.455Z,64.50
2022-09-20T16:50:21.178Z,64.65
2022-09-20T16:52:50.728Z,64.71
2022-09-20T16:55:21.662Z,64.63
2022-09-20T16:57:51.481Z,64.62
2022-09-20T17:00:22.581Z,64.73
2022-09-20T17:03:02.546Z,64.75
2022-09-20T17:05:46.894Z,64.84
2022-09-20T17:08:34.137Z,64.78
2022-09-20T17:11:27.998Z,64.70
2022-09-20T17:14:09.665Z,64.68
2022-09-20T17:16:54.805Z,64.68
2022-09-20T17:19:35.030Z,64.81
2022-09-20T17:22:16.000Z,64.83
2022-09-20T17:24:59.429Z,64.98
2022-09-20T17:27:39.997Z,64.87
2022-09-20T17:30:21.127Z,65.06
2022-09-20T17:33:02.581Z,65.12
2022-09-20T17:35:45.838Z,65.23
2022-09-20T17:38:27.926Z,65.20
2022-09-20T17:41:13.606Z,65.35
2022-09-20T17:43:54.742Z,65.40
2022-09-20T17:46:31.919Z,65.31
2022-09-20T17:49:03.117Z,65.44
2022-09-20T17:51:34.403Z,65.34
2022-09-20T17:54:03.942Z,65.35
2022-09-20T17:56:32.816Z,65.39
2022-09-20T17:59:06.022Z,65.43
2022-09-20T18:01:36.395Z,65.43
2022-09-20T18:04:06.855Z,65.53
2022-09-20T18:06:42.717Z,65.66
2022-09-20T18:09:15.370Z,65.74
2022-09-20T18:11:53.098Z,65.84
2022-09-20T18:14:27.988Z,65.82
2022-09-20T18:17:01.436Z,65.73
2022-09-20T18:19:34.112Z,65.77
2022-09-20T18:22:04.482Z,65.81
2022-09-20T18:24:33.303Z,65.98
2022-09-20T18:27:02.786Z,66.10
2022-09-20T18:29:37.001Z,66.10
2022-09-20T18:32:09.408Z,66.09
2022-09-20T18:34:38.784Z,66.10
2022-09-20T18:37:14.412Z,66.01
2022-09-20T18:39:44.168Z,66.05
2022-09-20T18:42:13.177Z,66.08
2022-09-20T18:44:44.178Z,66.25
2022-09-20T18:47:12.839Z,66.15
2022-09-20T18:49:41.457Z,66.09
2022-09-20T18:52:12.532Z,66.26
2022-09-20T18:54:41.732Z,66.51
2022-09-20T18:57:10.893Z,66.41
2022-09-20T18:59:40.554Z,66.42
2022-09-20T19:02:23.720Z,66.51
2022-09-20T19:05:12.726Z,66.49
2022-09-20T19:07:50.821Z,66.58
2022-09-20T19:10:38.393Z,66.58
2022-09-20T19:13:38.563Z,66.69
2022-09-20T19:16:18.806Z,66.76
2022-09-20T19:19:12.276Z,66.72
2022-09-20T19:21:48.114Z,66.81
2022-09-20T19:24:41.710Z,66.81
2022-09-20T19:27:14.476Z,66.71
2022-09-20T19:29:43.418Z,66.96
2022-09-20T19:32:21.929Z,66.93
2022-09-20T19:34:51.978Z,67.03
2022-09-20T19:37:42.291Z,67.01
2022-09-20T19:40:35.921Z,66.90
2022-09-20T19:43:09.332Z,67.06
2022-09-20T19:45:45.263Z,67.06
2022-09-20T19:48:45.105Z,67.12
2022-09-20T19:51:14.711Z,67.03
2022-09-20T19:53:43.860Z,66.99
2022-09-20T19:56:38.998Z,66.90
2022-09-20T19:59:09.413Z,67.12
2022-09-20T20:01:38.129Z,67.22
2022-09-20T20:04:07.764Z,67.29
2022-09-20T20:06:52.090Z,67.26
2022-09-20T20:10:04.604Z,67.34
2022-09-20T20:12:44.954Z,67.39
2022-09-20T20:15:19.732Z,67.30
2022-09-20T20:18:01.001Z,67.34
2022-09-20T20:20:34.393Z,67.43
2022-09-20T20:23:40.966Z,67.49
2022-09-20T20:26:17.719Z,67.61
2022-09-20T20:28:46.304Z,67.63
2022-09-20T20:31:15.636Z,67.66
2022-09-20T20:33:44.588Z,67.77
2022-09-20T20:36:13.320Z,67.86
2022-09-20T20:38:44.030Z,67.73
2022-09-20T20:41:15.586Z,67.81
2022-09-20T20:43:49.003Z,67.94
2022-09-20T20:46:21.505Z,68.14
2022-09-20T20:48:50.823Z,68.00
2022-09-20T20:51:21.488Z,68.02
2022-09-20T20:53:53.581Z,68.14
2022-09-20T20:56:26.193Z,68.08
2022-09-20T20:58:55.885Z,68.08
2022-09-20T21:01:36.915Z,68.16
2022-09-20T21:04:08.401Z,68.10
2022-09-20T21:06:39.835Z,68.12
2022-09-20T21:09:10.940Z,68.30
2022-09-20T21:11:45.042Z,68.46
2022-09-20T21:14:16.211Z,68.25
2022-09-20T21:16:45.377Z,68.13
2022-09-20T21:19:15.959Z,68.21
2022-09-20T21:21:47.559Z,68.34
2022-09-20T21:24:19.850Z,68.56
2022-09-20T21:26:48.915Z,68.70
2022-09-20T21:29:17.572Z,68.78
2022-09-20T21:31:48.065Z,68.73
2022-09-20T21:34:17.902Z,68.77
2022-09-20T21:36:46.812Z,68.74
2022-09-20T21:39:15.523Z,68.55
2022-09-20T21:41:44.090Z,68.57
2022-09-20T21:44:12.888Z,68.58
2022-09-20T21:46:42.365Z,68.69
2022-09-20T21:49:12.985Z,68.75
2022-09-20T21:51:43.330Z,68.93
2022-09-20T21:54:11.861Z,68.93
2022-09-20T21:56:42.014Z,69.11
2022-09-20T21:59:10.892Z,69.11
2022-09-20T22:01:40.565Z,69.15
2022-09-20T22:04:12.941Z,69.10
2022-09-20T22:06:45.729Z,69.06
2022-09-20T22:09:17.020Z,69.02
2022-09-20T22:11:48.501Z,69.15
2022-09-20T22:14:20.234Z,69.23
2022-09-20T22:16:51.684Z,69.48
2022-09-20T22:19:21.988Z,69.33
2022-09-20T22:21:51.737Z,69.29
2022-09-20T22:24:20.687Z,69.40
2022-09-20T22:26:51.987Z,69.51
2022-09-20T22:29:22.395Z,69.59
2022-09-20T22:31:51.277Z,69.57
2022-09-20T22:34:22.163Z,69.53
2022-09-20T22:36:51.179Z,69.66
2022-09-20T22:39:19.833Z,69.78
2022-09-20T22:41:51.564Z,69.81
2022-09-20T22:44:20.406Z,69.76
2022-09-20T22:46:48.871Z,69.68
2022-09-20T22:49:20.178Z,69.88
2022-09-20T22:51:48.960Z,69.93
2022-09-20T22:54:17.296Z,69.95
2022-09-20T22:56:46.553Z,70.05
2022-09-20T22:59:15.564Z,70.03
2022-09-20T23:01:46.298Z,70.10
2022-09-20T23:04:18.268Z,70.12
2022-09-20T23:06:55.302Z,70.04
2022-09-20T23:09:26.366Z,70.32
2022-09-20T23:11:55.437Z,70.15
2022-09-20T23:14:24.423Z,70.23
2022-09-20T23:16:53.788Z,70.22
2022-09-20T23:19:22.623Z,70.37
2022-09-20T23:21:51.397Z,70.27
2022-09-20T23:24:20.329Z,70.30
2022-09-20T23:26:49.243Z,70.35
2022-09-20T23:29:18.019Z,70.58
2022-09-20T23:31:48.443Z,70.42
2022-09-20T23:34:18.396Z,70.64
2022-09-20T23:36:47.157Z,70.66
2022-09-20T23:39:16.594Z,70.65
2022-09-20T23:41:50.627Z,70.71
2022-09-20T23:44:21.207Z,70.83
2022-09-20T23:46:50.393Z,70.81
2022-09-20T23:49:18.896Z,70.87
2022-09-20T23:51:48.986Z,70.86
2022-09-20T23:54:18.182Z,70.83
2022-09-20T23:56:47.898Z,70.96
2022-09-20T23:59:16.796Z,70.72
